Time;durP1;ratioP1;P1;durP2;ratioP2;P2;SDS_P1;SDS_P2;PMS_P1;PMS_P2;Temp;Humidity;BMP_temperature;BMP_pressure;BME280_temperature;BME280_humidity;BME280_pressure;Samples;Min_cycle;Max_cycle;Signal;HPM_P1;HPM_P2
2023/03/03 00:00:07;;;;;;;57.07;26.27;;;;;;;6.33;100.00;99688.38;5110173;28;20205;-53
2023/03/03 00:02:34;;;;;;;52.63;25.37;;;;;;;6.38;100.00;99684.06;5110383;28;20200;-53
2023/03/03 00:05:00;;;;;;;53.50;26.27;;;;;;;6.36;100.00;99678.06;5110683;28;20221;-53
2023/03/03 00:07:29;;;;;;;52.37;26.67;;;;;;;6.37;100.00;99673.75;5110181;28;20226;-50
2023/03/03 00:09:56;;;;;;;57.37;26.33;;;;;;;6.42;100.00;99675.44;5109896;28;20201;-53
2023/03/03 00:12:26;;;;;;;54.17;26.00;;;;;;;6.31;100.00;99669.53;5110248;28;20198;-53
2023/03/03 00:14:53;;;;;;;45.50;25.73;;;;;;;6.38;100.00;99662.56;5110289;28;20191;-50
2023/03/03 00:17:23;;;;;;;47.37;24.77;;;;;;;6.42;100.00;99662.53;5110250;28;20277;-51
2023/03/03 00:19:50;;;;;;;52.63;24.57;;;;;;;6.40;100.00;99656.53;5110422;28;20194;-50
2023/03/03 00:22:31;;;;;;;47.27;23.63;;;;;;;6.41;100.00;99652.25;5110147;28;20678;-50
2023/03/03 00:25:00;;;;;;;49.63;24.70;;;;;;;6.45;100.00;99641.00;5110179;28;20226;-50
2023/03/03 00:27:30;;;;;;;55.30;25.83;;;;;;;6.44;100.00;99637.56;5110157;28;20198;-50
2023/03/03 00:29:59;;;;;;;51.97;25.47;;;;;;;6.49;100.00;99627.22;5110160;28;20201;-50
2023/03/03 00:32:28;;;;;;;49.57;25.00;;;;;;;6.41;100.00;99635.06;5110138;28;20721;-50
2023/03/03 00:34:59;;;;;;;45.53;24.70;;;;;;;6.37;100.00;99625.63;5110239;28;20197;-50
2023/03/03 00:37:33;;;;;;;50.80;26.07;;;;;;;6.46;100.00;99625.53;5109877;28;20195;-51
2023/03/03 00:40:16;;;;;;;53.13;26.47;;;;;;;6.47;100.00;99616.06;5110026;28;20197;-50
2023/03/03 00:42:47;;;;;;;48.97;25.70;;;;;;;6.52;100.00;99615.16;5110366;28;20195;-50
2023/03/03 00:45:27;;;;;;;53.40;25.80;;;;;;;6.55;100.00;99609.09;5109711;28;20315;-53
2023/03/03 00:47:53;;;;;;;53.97;25.70;;;;;;;6.51;100.00;99607.44;5110201;28;20202;-53
2023/03/03 00:50:32;;;;;;;62.97;27.23;;;;;;;6.49;100.00;99610.03;5109595;28;20684;-53
2023/03/03 00:53:06;;;;;;;45.07;24.07;;;;;;;6.55;100.00;99604.78;5109984;28;20268;-50
2023/03/03 00:55:34;;;;;;;46.70;25.20;;;;;;;6.50;100.00;99605.72;5110010;28;20221;-50
2023/03/03 00:58:01;;;;;;;50.00;24.63;;;;;;;6.46;100.00;99592.00;5110157;28;20191;-50
2023/03/03 01:00:29;;;;;;;54.50;25.27;;;;;;;6.46;100.00;99593.72;5109799;28;20201;-54
2023/03/03 01:02:56;;;;;;;52.60;24.87;;;;;;;6.44;100.00;99578.28;5109993;28;20191;-50
2023/03/03 01:05:23;;;;;;;48.30;24.23;;;;;;;6.50;100.00;99596.28;5109761;28;20218;-54
2023/03/03 01:07:50;;;;;;;51.67;24.23;;;;;;;6.54;100.00;99600.53;5109934;28;20194;-54
2023/03/03 01:10:18;;;;;;;47.90;23.47;;;;;;;6.54;100.00;99602.25;5109617;28;20582;-51
2023/03/03 01:12:45;;;;;;;49.77;23.43;;;;;;;6.51;100.00;99592.81;5110020;28;20194;-54
2023/03/03 01:15:14;;;;;;;50.73;24.23;;;;;;;6.48;100.00;99598.00;5110031;28;20190;-50
2023/03/03 01:17:42;;;;;;;45.90;23.73;;;;;;;6.55;100.00;99599.63;5109985;28;20202;-50
2023/03/03 01:20:11;;;;;;;52.57;23.50;;;;;;;6.61;100.00;99591.00;5109649;28;20731;-50
2023/03/03 01:22:38;;;;;;;47.37;24.93;;;;;;;6.60;100.00;99591.00;5112282;28;20573;-50
2023/03/03 01:25:05;;;;;;;48.27;22.80;;;;;;;6.65;100.00;99589.25;5113274;28;20222;-54
2023/03/03 01:27:35;;;;;;;48.43;23.47;;;;;;;6.65;100.00;99600.41;5113407;28;20209;-54
2023/03/03 01:30:03;;;;;;;52.23;24.33;;;;;;;6.75;100.00;99596.84;5113365;28;20199;-51
2023/03/03 01:32:30;;;;;;;43.90;23.43;;;;;;;6.78;100.00;99596.78;5113693;28;20198;-50
2023/03/03 01:34:56;;;;;;;49.70;24.80;;;;;;;6.77;100.00;99604.56;5113564;28;20190;-53
2023/03/03 01:37:23;;;;;;;48.37;25.13;;;;;;;6.74;100.00;99599.44;5113042;28;20198;-53
2023/03/03 01:39:51;;;;;;;52.57;24.53;;;;;;;6.63;100.00;99593.56;5113376;28;20242;-50
2023/03/03 01:42:18;;;;;;;48.27;23.80;;;;;;;6.47;100.00;99593.72;5112754;28;20199;-54
2023/03/03 01:44:47;;;;;;;53.90;24.93;;;;;;;6.53;100.00;99598.81;5113084;27;20237;-51
2023/03/03 01:47:15;;;;;;;56.53;25.73;;;;;;;6.57;100.00;99594.47;5113165;28;20198;-53
2023/03/03 01:49:47;;;;;;;52.30;24.53;;;;;;;6.48;100.00;99592.84;5113080;28;20605;-53
2023/03/03 01:52:22;;;;;;;51.07;25.20;;;;;;;6.50;100.00;99596.28;5112678;28;20194;-53
2023/03/03 01:54:54;;;;;;;44.03;23.03;;;;;;;6.57;100.00;99591.88;5112792;28;20201;-53
2023/03/03 01:57:25;;;;;;;49.57;25.50;;;;;;;6.52;100.00;99588.53;5113213;28;20575;-50
2023/03/03 01:59:56;;;;;;;50.93;24.97;;;;;;;6.48;100.00;99582.53;5113221;28;20198;-53
2023/03/03 02:02:23;;;;;;;52.47;25.87;;;;;;;6.45;100.00;99582.56;5112623;28;20195;-53
2023/03/03 02:04:50;;;;;;;50.40;24.30;;;;;;;6.44;100.00;99578.28;5112652;28;20215;-53
2023/03/03 02:07:20;;;;;;;56.07;23.73;;;;;;;6.49;100.00;99579.09;5112148;28;20617;-50
2023/03/03 02:09:55;;;;;;;52.63;26.40;;;;;;;6.52;100.00;99573.91;5112863;28;20662;-54
2023/03/03 02:12:28;;;;;;;46.93;23.53;;;;;;;6.48;100.00;99571.38;5112464;28;20271;-54
2023/03/03 02:14:56;;;;;;;52.07;24.70;;;;;;;6.50;100.00;99580.81;5112608;28;20191;-51
2023/03/03 02:17:24;;;;;;;49.80;25.07;;;;;;;6.52;100.00;99579.06;5112430;28;20206;-50
2023/03/03 02:20:02;;;;;;;54.73;25.13;;;;;;;6.56;100.00;99574.72;5112341;28;20200;-53
2023/03/03 02:22:39;;;;;;;50.20;26.13;;;;;;;6.50;100.00;99569.63;5112605;28;20198;-54
2023/03/03 02:25:11;;;;;;;53.27;24.43;;;;;;;6.66;100.00;99571.16;5112171;28;20309;-50
2023/03/03 02:27:39;;;;;;;60.50;25.63;;;;;;;6.57;100.00;99569.53;5112427;28;20672;-54
2023/03/03 02:30:14;;;;;;;51.77;24.73;;;;;;;6.65;100.00;99571.19;5112005;28;20194;-50
2023/03/03 02:32:40;;;;;;;62.20;25.30;;;;;;;6.66;100.00;99575.47;5112181;28;20194;-50
2023/03/03 02:35:28;;;;;;;45.60;24.33;;;;;;;6.56;100.00;99572.97;5111757;28;20597;-51
2023/03/03 02:37:59;;;;;;;52.17;23.93;;;;;;;6.54;100.00;99564.44;5112658;28;20203;-50
2023/03/03 02:40:31;;;;;;;57.33;26.63;;;;;;;6.52;100.00;99555.00;5111898;28;20209;-50
2023/03/03 02:43:05;;;;;;;52.37;24.20;;;;;;;6.68;100.00;99559.09;5112002;28;20206;-53
2023/03/03 02:45:32;;;;;;;46.40;24.93;;;;;;;6.62;100.00;99563.47;5112287;28;20602;-54
2023/03/03 02:47:59;;;;;;;51.93;24.87;;;;;;;6.66;100.00;99568.56;5111854;28;20205;-53
2023/03/03 02:50:26;;;;;;;48.13;24.77;;;;;;;6.57;100.00;99573.84;5111597;28;20290;-50
2023/03/03 02:52:53;;;;;;;51.57;26.37;;;;;;;6.62;100.00;99568.63;5111881;28;20684;-50
2023/03/03 02:55:19;;;;;;;50.83;26.40;;;;;;;6.54;100.00;99569.59;5111313;28;20286;-50
2023/03/03 02:57:47;;;;;;;47.20;25.77;;;;;;;6.47;100.00;99570.50;5111740;28;20194;-53
2023/03/03 03:00:16;;;;;;;54.83;26.40;;;;;;;6.50;100.00;99569.63;5111475;28;20198;-50
2023/03/03 03:02:44;;;;;;;57.73;27.27;;;;;;;6.55;100.00;99573.84;5111687;28;20216;-50
2023/03/03 03:05:11;;;;;;;55.37;26.63;;;;;;;6.45;100.00;99567.09;5111273;28;20218;-50
2023/03/03 03:07:37;;;;;;;57.10;27.23;;;;;;;6.47;100.00;99564.50;5111073;28;20241;-50
2023/03/03 03:10:05;;;;;;;54.73;27.67;;;;;;;6.45;100.00;99564.53;5111435;28;20202;-53
2023/03/03 03:12:32;;;;;;;51.17;25.87;;;;;;;6.22;100.00;99524.41;5111461;28;20201;-50
2023/03/03 03:14:59;;;;;;;60.10;26.50;;;;;;;6.43;100.00;99563.69;5111880;28;20311;-53
2023/03/03 03:17:27;;;;;;;62.47;27.87;;;;;;;6.46;100.00;99557.63;5111325;28;20198;-51
2023/03/03 03:19:54;;;;;;;56.23;27.67;;;;;;;6.47;100.00;99556.78;5111289;28;20209;-49
2023/03/03 03:22:21;;;;;;;56.00;27.83;;;;;;;6.45;100.00;99556.78;5111451;28;20198;-53
2023/03/03 03:24:48;;;;;;;56.73;27.83;;;;;;;6.52;100.00;99553.28;5111088;28;20226;-50
2023/03/03 03:27:15;;;;;;;56.33;27.20;;;;;;;6.56;100.00;99554.94;5110976;28;20202;-50
2023/03/03 03:29:41;;;;;;;60.20;28.63;;;;;;;6.51;100.00;99556.72;5111312;28;20617;-52
2023/03/03 03:32:08;;;;;;;50.17;27.53;;;;;;;6.50;100.00;99549.84;5110843;28;20195;-49
2023/03/03 03:34:37;;;;;;;56.67;28.07;;;;;;;6.56;100.00;99546.34;5111159;28;20194;-49
2023/03/03 03:37:03;;;;;;;60.53;26.90;;;;;;;6.48;100.00;99561.06;5110934;28;20200;-53
2023/03/03 03:39:30;;;;;;;55.07;28.00;;;;;;;6.49;100.00;99550.72;5111078;28;20674;-53
2023/03/03 03:41:57;;;;;;;54.87;27.33;;;;;;;6.48;100.00;99551.59;5110826;28;20194;-54
2023/03/03 03:44:24;;;;;;;53.30;28.90;;;;;;;6.53;100.00;99548.97;5110637;28;20236;-53
2023/03/03 03:46:51;;;;;;;56.10;29.00;;;;;;;6.48;100.00;99550.75;5110251;28;20567;-52
2023/03/03 03:49:18;;;;;;;57.10;29.37;;;;;;;6.52;100.00;99547.28;5110445;28;20205;-53
2023/03/03 03:51:46;;;;;;;62.97;28.37;;;;;;;6.41;100.00;99547.41;5110434;28;20214;-49
2023/03/03 03:54:13;;;;;;;56.73;29.80;;;;;;;6.45;100.00;99559.34;5110635;28;20195;-51
2023/03/03 03:56:40;;;;;;;60.43;28.87;;;;;;;6.56;100.00;99557.50;5110723;28;20277;-49
2023/03/03 03:59:08;;;;;;;62.77;28.80;;;;;;;6.57;100.00;99554.06;5110681;28;20203;-50
2023/03/03 04:01:35;;;;;;;54.10;28.37;;;;;;;6.53;100.00;99554.13;5110507;28;20197;-50
2023/03/03 04:04:02;;;;;;;60.77;28.33;;;;;;;6.47;100.00;99549.88;5110579;28;20214;-50
2023/03/03 04:06:29;;;;;;;55.33;28.40;;;;;;;6.45;100.00;99548.19;5110190;28;20233;-53
2023/03/03 04:08:58;;;;;;;56.70;30.03;;;;;;;6.41;100.00;99551.69;5110652;28;20688;-53
2023/03/03 04:11:24;;;;;;;54.73;28.80;;;;;;;6.42;100.00;99556.00;5110230;28;20212;-49
2023/03/03 04:13:51;;;;;;;63.27;28.93;;;;;;;6.23;100.00;99547.59;5110589;28;20677;-49
2023/03/03 04:16:18;;;;;;;57.13;28.63;;;;;;;6.25;100.00;99547.56;5110227;28;20670;-52
2023/03/03 04:18:45;;;;;;;57.73;28.50;;;;;;;6.30;100.00;99541.50;5110464;28;20601;-49
2023/03/03 04:21:13;;;;;;;60.60;30.53;;;;;;;6.14;100.00;99539.97;5110270;28;20195;-54
2023/03/03 04:23:40;;;;;;;70.27;33.27;;;;;;;6.22;100.00;99542.44;5110562;28;20209;-50
2023/03/03 04:26:08;;;;;;;67.87;31.60;;;;;;;6.28;100.00;99537.22;5110319;28;20586;-50
2023/03/03 04:28:35;;;;;;;66.07;32.60;;;;;;;6.33;100.00;99541.44;5110353;28;20230;-52
2023/03/03 04:31:02;;;;;;;65.73;30.27;;;;;;;6.37;100.00;99553.44;5110238;28;20580;-51
2023/03/03 04:33:29;;;;;;;67.80;32.80;;;;;;;6.46;100.00;99545.59;5109863;28;20285;-50
2023/03/03 04:35:56;;;;;;;64.60;31.30;;;;;;;6.48;100.00;99551.59;5110179;28;20234;-49
2023/03/03 04:38:23;;;;;;;64.10;30.83;;;;;;;6.48;100.00;99538.72;5110221;28;20650;-50
2023/03/03 04:40:50;;;;;;;71.77;32.67;;;;;;;6.51;100.00;99543.84;5110278;28;20190;-51
2023/03/03 04:43:18;;;;;;;68.73;31.67;;;;;;;6.57;100.00;99538.59;5109898;28;20200;-49
2023/03/03 04:45:45;;;;;;;59.67;31.13;;;;;;;6.53;100.00;99538.66;5097354;28;20302;-51
2023/03/03 04:48:12;;;;;;;60.60;29.50;;;;;;;6.54;100.00;99541.22;5089767;28;20195;-50
2023/03/03 04:50:38;;;;;;;59.53;28.43;;;;;;;6.50;100.00;99544.69;5089846;28;20195;-51
2023/03/03 04:53:05;;;;;;;62.77;29.73;;;;;;;6.53;100.00;99543.81;5089555;28;20199;-50
2023/03/03 04:55:33;;;;;;;53.90;28.17;;;;;;;6.54;100.00;99541.22;5089744;28;20572;-53
2023/03/03 04:58:00;;;;;;;58.93;28.13;;;;;;;6.54;100.00;99546.38;5092528;28;20221;-54
2023/03/03 05:00:28;;;;;;;58.10;28.53;;;;;;;6.54;100.00;99543.81;5093179;28;20579;-53
2023/03/03 05:02:55;;;;;;;61.90;28.13;;;;;;;6.56;100.00;99534.31;5093141;28;20199;-54
2023/03/03 05:05:22;;;;;;;61.40;28.20;;;;;;;6.64;100.00;99543.69;5093374;28;20258;-50
2023/03/03 05:07:49;;;;;;;58.00;29.37;;;;;;;6.67;100.00;99553.94;5093446;28;20195;-54
2023/03/03 05:10:16;;;;;;;49.63;26.60;;;;;;;6.59;100.00;99548.03;5093547;28;20582;-54
2023/03/03 05:12:44;;;;;;;48.97;26.73;;;;;;;6.36;100.00;99520.81;5093249;28;20205;-53
2023/03/03 05:15:11;;;;;;;60.60;29.33;;;;;;;6.51;100.00;99554.16;5093461;28;20734;-54
2023/03/03 05:17:40;;;;;;;60.20;27.90;;;;;;;6.51;100.00;99554.16;5093333;28;20203;-50
2023/03/03 05:20:09;;;;;;;59.73;29.47;;;;;;;6.56;100.00;99554.06;5093415;28;20203;-54
2023/03/03 05:22:36;;;;;;;62.40;29.73;;;;;;;6.52;100.00;99557.59;5093304;28;20232;-50
2023/03/03 05:25:02;;;;;;;54.73;29.80;;;;;;;6.42;100.00;99554.25;5093122;28;20256;-52
2023/03/03 05:27:29;;;;;;;56.17;30.00;;;;;;;6.47;100.00;99554.19;5092818;28;20205;-52
2023/03/03 05:29:56;;;;;;;58.53;31.87;;;;;;;6.35;100.00;99544.88;5093445;28;20195;-52
2023/03/03 05:32:23;;;;;;;62.10;32.10;;;;;;;6.54;100.00;99558.41;5092704;28;20206;-52
2023/03/03 05:34:52;;;;;;;60.87;32.10;;;;;;;6.55;100.00;99550.66;5092951;28;20195;-53
2023/03/03 05:37:18;;;;;;;64.50;32.67;;;;;;;6.61;100.00;99557.47;5092950;28;20643;-53
2023/03/03 05:39:45;;;;;;;61.93;32.17;;;;;;;6.68;100.00;99558.22;5092936;28;20205;-50
2023/03/03 05:42:13;;;;;;;62.37;31.87;;;;;;;6.71;100.00;99558.19;5092507;28;20547;-49
2023/03/03 05:44:40;;;;;;;63.33;32.23;;;;;;;6.74;100.00;99555.59;5092765;28;20202;-50
2023/03/03 05:47:07;;;;;;;61.10;31.90;;;;;;;6.63;100.00;99539.41;5092706;28;20203;-53
2023/03/03 05:49:34;;;;;;;65.73;34.47;;;;;;;6.80;100.00;99558.94;5092674;28;20195;-53
2023/03/03 05:52:02;;;;;;;74.07;34.60;;;;;;;6.90;100.00;99567.41;5092595;28;20195;-51
2023/03/03 05:54:29;;;;;;;67.27;35.13;;;;;;;6.93;100.00;99565.66;5092280;28;20613;-53
2023/03/03 05:56:56;;;;;;;71.47;36.27;;;;;;;6.97;100.00;99561.31;5092811;28;20625;-53
2023/03/03 05:59:23;;;;;;;69.63;35.00;;;;;;;6.89;100.00;99558.81;5091225;28;20225;-53
2023/03/03 06:01:50;;;;;;;70.77;36.07;;;;;;;6.90;100.00;99557.09;5091302;28;20202;-52
2023/03/03 06:04:17;;;;;;;66.83;34.17;;;;;;;7.05;100.00;99572.38;5092312;28;20191;-50
2023/03/03 06:06:44;;;;;;;72.83;36.47;;;;;;;7.17;100.00;99571.34;5092199;28;20729;-50
2023/03/03 06:09:12;;;;;;;61.97;32.40;;;;;;;7.16;100.00;99577.38;5090962;28;20199;-53
2023/03/03 06:11:39;;;;;;;62.07;29.17;;;;;;;7.11;100.00;99580.00;5092151;28;20200;-49
2023/03/03 06:14:06;;;;;;;61.87;33.17;;;;;;;7.15;100.00;99581.69;5092205;28;20199;-49
2023/03/03 06:16:33;;;;;;;71.30;40.80;;;;;;;6.98;100.00;99567.31;5092279;28;20699;-50
2023/03/03 06:19:00;;;;;;;69.53;38.73;;;;;;;7.16;100.00;99582.53;5092589;28;20553;-50
2023/03/03 06:21:27;;;;;;;59.60;29.90;;;;;;;7.24;100.00;99586.72;5094727;28;20597;-54
2023/03/03 06:23:54;;;;;;;55.40;29.20;;;;;;;7.26;100.00;99587.56;5112241;28;20194;-53
2023/03/03 06:26:22;;;;;;;53.77;28.43;;;;;;;7.21;100.00;99591.09;5112325;28;20611;-54
2023/03/03 06:28:52;;;;;;;58.50;27.63;;;;;;;7.14;100.00;99590.31;5112547;28;20590;-50
2023/03/03 06:31:19;;;;;;;57.47;32.13;;;;;;;7.18;100.00;99589.41;5104381;28;20455;-62
2023/03/03 06:33:46;;;;;;;52.03;29.47;;;;;;;7.23;100.00;99592.75;5100799;28;20295;-62
2023/03/03 06:36:13;;;;;;;51.40;28.27;;;;;;;7.26;100.00;99590.13;5110192;28;20195;-62
2023/03/03 06:38:40;;;;;;;52.70;28.53;;;;;;;7.31;100.00;99597.81;5112122;28;20195;-61
2023/03/03 06:41:07;;;;;;;51.40;28.20;;;;;;;7.36;100.00;99595.16;5112035;28;20201;-56
2023/03/03 06:43:36;;;;;;;48.53;28.03;;;;;;;7.29;100.00;99595.25;5111743;28;20285;-56
2023/03/03 06:46:03;;;;;;;52.60;29.17;;;;;;;7.13;100.00;99593.75;5112008;28;20233;-56
2023/03/03 06:48:31;;;;;;;48.47;28.47;;;;;;;7.24;100.00;99599.63;5111849;28;20285;-56
2023/03/03 06:50:59;;;;;;;50.53;27.83;;;;;;;7.25;100.00;99597.91;5111887;28;20707;-61
2023/03/03 06:53:26;;;;;;;46.87;28.37;;;;;;;7.22;100.00;99598.78;5111867;28;20561;-56
2023/03/03 06:55:54;;;;;;;52.13;28.50;;;;;;;7.23;100.00;99595.34;5104883;28;20214;-56
2023/03/03 06:58:22;;;;;;;48.03;25.67;;;;;;;7.13;100.00;99598.91;5090250;28;20215;-62
2023/03/03 07:00:55;;;;;;;39.83;24.03;;;;;;;7.23;100.00;99597.06;5091181;28;20219;-59
2023/03/03 07:03:24;;;;;;;45.73;25.07;;;;;;;7.29;100.00;99587.53;5109040;28;20227;-61
2023/03/03 07:05:52;;;;;;;42.20;24.33;;;;;;;7.12;100.00;99560.22;5111083;28;20242;-60
2023/03/03 07:08:21;;;;;;;46.93;25.93;;;;;;;7.23;100.00;99592.75;5096983;28;20275;-63
2023/03/03 07:10:50;;;;;;;40.47;24.13;;;;;;;7.19;100.00;99598.84;5110518;28;20709;-61
2023/03/03 07:13:20;;;;;;;41.53;24.23;;;;;;;7.31;100.00;99596.97;5109005;27;20614;-61
2023/03/03 07:15:48;;;;;;;43.47;27.90;;;;;;;7.32;100.00;99590.94;5108255;28;20197;-61
2023/03/03 07:18:33;;;;;;;49.20;25.73;;;;;;;7.43;100.00;99592.50;5109487;28;20679;-60
2023/03/03 07:21:13;;;;;;;46.37;27.30;;;;;;;7.40;100.00;99596.84;5110238;28;20319;-60
2023/03/03 07:23:42;;;;;;;52.67;27.90;;;;;;;7.45;100.00;99597.63;5109052;28;20209;-61
2023/03/03 07:26:12;;;;;;;44.00;25.43;;;;;;;7.53;100.00;99593.19;5110135;28;20229;-60
2023/03/03 07:28:42;;;;;;;53.53;29.23;;;;;;;7.59;100.00;99598.25;5110325;28;20654;-61
2023/03/03 07:31:37;;;;;;;50.23;27.43;;;;;;;7.61;100.00;99596.50;5110191;28;20206;-60
2023/03/03 07:34:20;;;;;;;55.43;30.23;;;;;;;7.60;100.00;99575.00;5074363;27;20198;-60
2023/03/03 07:36:47;;;;;;;50.37;28.47;;;;;;;7.59;100.00;99600.84;5110072;28;20209;-61
2023/03/03 07:39:31;;;;;;;50.30;28.53;;;;;;;7.68;100.00;99587.78;5110028;28;20195;-60
2023/03/03 07:42:15;;;;;;;44.30;25.57;;;;;;;7.50;100.00;99594.09;5110392;28;20197;-61
2023/03/03 07:44:42;;;;;;;47.43;25.47;;;;;;;7.49;100.00;99597.53;5109880;28;20205;-61
2023/03/03 07:47:24;;;;;;;42.33;23.60;;;;;;;7.46;100.00;99586.41;5109679;28;20222;-60
2023/03/03 07:49:54;;;;;;;42.37;25.47;;;;;;;7.67;100.00;99593.00;5110322;28;20653;-62
2023/03/03 07:52:29;;;;;;;46.90;25.10;;;;;;;7.71;100.00;99586.88;5109924;28;20199;-61
2023/03/03 07:54:58;;;;;;;51.87;28.40;;;;;;;7.81;100.00;99588.44;5110061;28;20190;-60
2023/03/03 07:57:27;;;;;;;120.73;68.23;;;;;;;7.70;100.00;99588.59;5109734;28;20223;-61
2023/03/03 07:59:58;;;;;;;67.10;40.47;;;;;;;7.85;100.00;99590.09;5110006;28;20202;-60
2023/03/03 08:02:41;;;;;;;44.83;25.33;;;;;;;7.78;100.00;99589.34;5110056;28;20202;-61
2023/03/03 08:05:40;;;;;;;42.17;19.57;;;;;;;7.70;100.00;99590.34;5109750;28;20209;-60
2023/03/03 08:08:21;;;;;;;38.60;21.77;;;;;;;7.78;100.00;99589.34;5046839;28;20242;-60
2023/03/03 08:10:50;;;;;;;35.73;22.87;;;;;;;7.69;100.00;99584.31;5101862;28;20685;-60
2023/03/03 08:13:19;;;;;;;44.57;24.93;;;;;;;7.78;100.00;99573.00;5109636;28;20208;-60
2023/03/03 08:15:49;;;;;;;35.57;20.33;;;;;;;7.79;100.00;99579.88;5109821;28;20291;-57
2023/03/03 08:18:26;;;;;;;38.93;21.10;;;;;;;7.80;100.00;99568.63;5109630;28;20201;-59
2023/03/03 08:20:57;;;;;;;61.93;37.93;;;;;;;7.80;100.00;99571.22;5109721;28;20230;-58
2023/03/03 08:23:24;;;;;;;37.37;21.17;;;;;;;7.83;100.00;99577.19;5109512;28;20199;-58
2023/03/03 08:25:52;;;;;;;34.40;19.37;;;;;;;7.79;100.00;99570.38;5109587;28;20309;-60
2023/03/03 08:28:20;;;;;;;35.67;21.37;;;;;;;7.76;100.00;99565.28;5109542;28;20302;-59
2023/03/03 08:30:47;;;;;;;38.33;21.53;;;;;;;7.68;100.00;99554.19;5109333;28;20670;-59
2023/03/03 08:33:15;;;;;;;31.27;18.20;;;;;;;7.79;100.00;99566.97;5109078;28;20199;-59
2023/03/03 08:35:42;;;;;;;34.40;18.60;;;;;;;7.72;100.00;99560.16;5109370;28;20194;-59
2023/03/03 08:38:12;;;;;;;46.43;21.00;;;;;;;7.67;100.00;99556.81;5109176;28;20208;-60
2023/03/03 08:40:39;;;;;;;32.37;18.30;;;;;;;7.76;100.00;99549.78;5108591;28;20596;-60
2023/03/03 08:43:06;;;;;;;29.60;16.77;;;;;;;7.80;100.00;99546.22;5109394;28;20682;-59
2023/03/03 08:45:33;;;;;;;26.37;16.50;;;;;;;7.71;100.00;99546.41;5109003;28;20199;-58
2023/03/03 08:48:01;;;;;;;35.80;19.60;;;;;;;7.81;100.00;99542.78;5109280;28;20210;-58
2023/03/03 08:50:28;;;;;;;34.93;19.20;;;;;;;7.87;100.00;99547.00;5109219;28;20244;-60
2023/03/03 08:52:56;;;;;;;27.23;17.30;;;;;;;7.87;100.00;99531.50;5108554;28;20578;-59
2023/03/03 08:55:24;;;;;;;33.83;17.57;;;;;;;7.94;100.00;99538.25;5108837;28;20197;-60
2023/03/03 08:57:51;;;;;;;31.27;18.73;;;;;;;7.89;100.00;99540.94;5109204;28;20216;-60
2023/03/03 09:00:20;;;;;;;27.97;18.13;;;;;;;7.89;100.00;99546.09;5109071;28;20670;-59
2023/03/03 09:02:48;;;;;;;33.17;18.83;;;;;;;7.85;100.00;99546.16;5108799;28;20214;-61
2023/03/03 09:05:16;;;;;;;32.20;18.77;;;;;;;7.86;100.00;99546.16;5108769;28;20191;-60
2023/03/03 09:07:44;;;;;;;37.07;20.90;;;;;;;7.82;100.00;99544.47;5109233;28;20648;-60
2023/03/03 09:10:15;;;;;;;33.87;18.53;;;;;;;7.88;100.00;99549.56;5108436;28;20226;-61
2023/03/03 09:12:47;;;;;;;31.77;18.83;;;;;;;7.88;100.00;99543.53;5109402;28;20663;-59
2023/03/03 09:15:20;;;;;;;33.90;18.90;;;;;;;7.90;100.00;99532.28;5108760;28;20627;-60
2023/03/03 09:17:48;;;;;;;36.73;20.73;;;;;;;8.00;100.00;99527.81;5109115;28;20208;-60
2023/03/03 09:20:33;;;;;;;40.03;24.73;;;;;;;8.19;100.00;99533.50;5108790;28;20199;-60
2023/03/03 09:23:25;;;;;;;34.40;21.93;;;;;;;8.45;100.00;99536.47;5109084;28;20236;-58
2023/03/03 09:25:53;;;;;;;37.83;23.40;;;;;;;8.47;100.00;99537.25;5109020;28;20575;-59
2023/03/03 09:28:25;;;;;;;39.03;21.83;;;;;;;8.54;100.00;99525.94;5108401;28;20195;-59
2023/03/03 09:30:56;;;;;;;28.83;19.97;;;;;;;8.54;100.00;99523.34;5108920;28;20588;-59
2023/03/03 09:33:27;;;;;;;31.47;18.20;;;;;;;8.76;100.00;99526.34;5107935;28;20219;-59
2023/03/03 09:36:06;;;;;;;31.50;18.80;;;;;;;8.74;100.00;99518.59;5108955;28;20213;-59
2023/03/03 09:38:34;;;;;;;29.37;17.33;;;;;;;8.70;100.00;99521.28;5108644;28;20194;-59
2023/03/03 09:41:43;;;;;;;22.73;14.13;;;;;;;8.54;100.00;99518.16;5108309;28;20194;-61
2023/03/03 09:44:36;;;;;;;25.63;13.77;;;;;;;8.34;100.00;99510.81;5109809;28;20237;-60
2023/03/03 09:47:21;;;;;;;20.40;13.17;;;;;;;8.45;100.00;99530.44;5111382;28;20215;-60
2023/03/03 09:49:58;;;;;;;27.20;14.00;;;;;;;8.47;100.00;99526.91;5111897;28;20230;-60
2023/03/03 09:52:38;;;;;;;22.33;13.20;;;;;;;8.64;100.00;99522.25;5111870;28;20308;-60
2023/03/03 09:55:22;;;;;;;21.97;14.67;;;;;;;8.73;100.00;99516.88;5112321;28;20213;-60
2023/03/03 09:58:18;;;;;;;28.87;16.63;;;;;;;8.55;100.00;99517.28;5112348;28;20194;-59
2023/03/03 10:00:57;;;;;;;34.77;19.20;;;;;;;8.68;100.00;99517.88;5110637;27;20199;-60
2023/03/03 10:03:51;;;;;;;32.00;21.23;;;;;;;8.64;100.00;99509.31;5112091;28;20202;-60
2023/03/03 10:06:25;;;;;;;35.87;21.27;;;;;;;8.77;100.00;99509.94;5111234;28;20318;-60
2023/03/03 10:09:08;;;;;;;35.40;20.67;;;;;;;8.65;100.00;99513.63;5111636;28;20198;-60
2023/03/03 10:11:41;;;;;;;40.27;23.40;;;;;;;8.60;100.00;99518.03;5112212;28;20594;-60
2023/03/03 10:14:25;;;;;;;37.33;23.27;;;;;;;8.65;100.00;99515.34;5112361;28;20205;-60
2023/03/03 10:17:16;;;;;;;36.93;22.30;;;;;;;8.53;100.00;99510.44;5111638;28;20190;-60
2023/03/03 10:19:51;;;;;;;34.13;20.20;;;;;;;8.49;100.00;99504.47;5112009;28;20312;-61
2023/03/03 10:22:23;;;;;;;34.60;22.23;;;;;;;8.48;100.00;99514.84;5109261;28;20310;-60
2023/03/03 10:25:15;;;;;;;50.07;28.50;;;;;;;8.42;100.00;99500.31;5101154;28;20264;-61
2023/03/03 10:27:55;;;;;;;40.47;24.43;;;;;;;8.30;100.00;99497.94;5090988;28;20249;-59
2023/03/03 10:30:34;;;;;;;36.43;22.73;;;;;;;8.25;100.00;99502.31;5091338;28;20290;-60
2023/03/03 10:33:12;;;;;;;30.70;19.83;;;;;;;8.23;100.00;99502.38;5102162;28;20199;-60
2023/03/03 10:36:12;;;;;;;37.83;21.47;;;;;;;8.14;100.00;99499.97;5111355;28;20577;-60
2023/03/03 10:38:49;;;;;;;34.30;20.63;;;;;;;8.14;100.00;99499.09;5098269;27;20223;-63
2023/03/03 10:41:36;;;;;;;38.70;21.93;;;;;;;8.25;100.00;99486.81;5090632;28;20219;-60
2023/03/03 10:44:24;;;;;;;38.03;21.57;;;;;;;8.36;100.00;99490.06;5110590;28;20201;-59
2023/03/03 10:47:00;;;;;;;34.27;21.53;;;;;;;8.26;100.00;99483.34;5111717;28;20690;-59
2023/03/03 10:49:45;;;;;;;34.20;19.67;;;;;;;8.28;100.00;99476.41;5110898;28;20206;-59
2023/03/03 10:52:30;;;;;;;36.33;21.47;;;;;;;8.15;100.00;99486.16;5111183;28;20198;-59
2023/03/03 10:55:17;;;;;;;37.40;22.53;;;;;;;8.21;100.00;99485.19;5110654;28;20198;-60
2023/03/03 10:57:52;;;;;;;54.07;28.93;;;;;;;8.34;100.00;99476.34;5111204;28;20187;-60
2023/03/03 11:00:24;;;;;;;42.93;24.63;;;;;;;8.43;100.00;99464.94;5111148;27;20610;-61
2023/03/03 11:03:17;;;;;;;45.07;25.83;;;;;;;8.46;100.00;99462.31;5111501;28;20252;-60
2023/03/03 11:05:51;;;;;;;35.70;20.87;;;;;;;8.37;100.00;99452.97;5110977;28;20230;-59
2023/03/03 11:08:23;;;;;;;46.13;26.20;;;;;;;8.36;100.00;99451.28;5111103;28;20219;-60
2023/03/03 11:11:00;;;;;;;55.40;29.73;;;;;;;8.36;100.00;99449.53;5111095;28;20563;-60
2023/03/03 11:13:39;;;;;;;47.90;27.57;;;;;;;8.57;100.00;99452.59;5110580;28;20247;-60
2023/03/03 11:16:20;;;;;;;45.17;26.17;;;;;;;8.58;100.00;99455.13;5111167;28;20732;-59
2023/03/03 11:19:00;;;;;;;41.57;23.77;;;;;;;8.75;100.00;99454.75;5111213;28;20289;-60
2023/03/03 11:21:37;;;;;;;38.07;23.73;;;;;;;8.87;100.00;99451.03;5110164;28;20678;-59
2023/03/03 11:24:29;;;;;;;36.27;21.43;;;;;;;8.86;100.00;99445.00;5109897;28;20289;-61
2023/03/03 11:27:12;;;;;;;35.17;22.13;;;;;;;8.91;100.00;99444.91;5110531;28;20218;-60
2023/03/03 11:30:03;;;;;;;38.33;22.13;;;;;;;9.06;100.00;99447.13;5110427;28;20198;-60
2023/03/03 11:32:41;;;;;;;44.00;25.03;;;;;;;8.97;100.00;99444.75;5110149;28;20198;-60
2023/03/03 11:35:24;;;;;;;96.87;44.00;;;;;;;9.02;100.00;99441.19;5110466;28;20198;-60